sensor_id;sensor_type;location;lat;lon;timestamp;P1;durP1;ratioP1;P2;durP2;ratioP2
66425;SDS011;53237;46.158;14.604;2023-08-12T00:01:36;2.20;;;2.00;;
66425;SDS011;53237;46.158;14.604;2023-08-12T00:04:02;2.60;;;2.20;;
66425;SDS011;53237;46.158;14.604;2023-08-12T00:06:28;3.08;;;2.40;;
66425;SDS011;53237;46.158;14.604;2023-08-12T00:08:54;2.80;;;2.38;;
66425;SDS011;53237;46.158;14.604;2023-08-12T00:11:20;2.45;;;2.10;;
66425;SDS011;53237;46.158;14.604;2023-08-12T00:13:46;2.30;;;1.92;;
66425;SDS011;53237;46.158;14.604;2023-08-12T00:16:11;2.15;;;1.95;;
66425;SDS011;53237;46.158;14.604;2023-08-12T00:18:37;3.08;;;2.55;;
66425;SDS011;53237;46.158;14.604;2023-08-12T00:21:07;2.42;;;2.03;;
66425;SDS011;53237;46.158;14.604;2023-08-12T00:23:38;2.00;;;1.90;;
66425;SDS011;53237;46.158;14.604;2023-08-12T00:26:05;2.50;;;2.30;;
66425;SDS011;53237;46.158;14.604;2023-08-12T00:28:31;2.03;;;1.83;;
66425;SDS011;53237;46.158;14.604;2023-08-12T00:30:57;2.22;;;2.00;;
66425;SDS011;53237;46.158;14.604;2023-08-12T00:33:23;3.15;;;2.20;;
66425;SDS011;53237;46.158;14.604;2023-08-12T00:35:49;2.60;;;2.38;;
66425;SDS011;53237;46.158;14.604;2023-08-12T00:38:15;3.25;;;2.38;;
66425;SDS011;53237;46.158;14.604;2023-08-12T00:40:41;2.42;;;2.22;;
66425;SDS011;53237;46.158;14.604;2023-08-12T00:43:07;2.10;;;1.90;;
66425;SDS011;53237;46.158;14.604;2023-08-12T00:45:34;2.20;;;2.00;;
66425;SDS011;53237;46.158;14.604;2023-08-12T00:48:01;3.00;;;2.30;;
66425;SDS011;53237;46.158;14.604;2023-08-12T00:50:27;2.40;;;1.98;;
66425;SDS011;53237;46.158;14.604;2023-08-12T00:52:54;2.15;;;2.05;;
66425;SDS011;53237;46.158;14.604;2023-08-12T00:55:20;2.17;;;2.03;;
66425;SDS011;53237;46.158;14.604;2023-08-12T00:57:47;2.50;;;2.08;;
66425;SDS011;53237;46.158;14.604;2023-08-12T01:00:13;2.58;;;2.00;;
66425;SDS011;53237;46.158;14.604;2023-08-12T01:02:40;2.10;;;1.90;;
66425;SDS011;53237;46.158;14.604;2023-08-12T01:05:10;2.10;;;1.95;;
66425;SDS011;53237;46.158;14.604;2023-08-12T01:07:36;2.53;;;2.20;;
66425;SDS011;53237;46.158;14.604;2023-08-12T01:10:02;2.67;;;1.80;;
66425;SDS011;53237;46.158;14.604;2023-08-12T01:12:39;2.75;;;2.00;;
66425;SDS011;53237;46.158;14.604;2023-08-12T01:15:07;3.67;;;2.05;;
66425;SDS011;53237;46.158;14.604;2023-08-12T01:17:36;2.30;;;2.10;;
66425;SDS011;53237;46.158;14.604;2023-08-12T01:20:03;1.85;;;1.75;;
66425;SDS011;53237;46.158;14.604;2023-08-12T01:22:34;2.17;;;2.00;;
66425;SDS011;53237;46.158;14.604;2023-08-12T01:25:04;3.13;;;1.85;;
66425;SDS011;53237;46.158;14.604;2023-08-12T01:27:30;1.80;;;1.70;;
66425;SDS011;53237;46.158;14.604;2023-08-12T01:29:56;1.92;;;1.83;;
66425;SDS011;53237;46.158;14.604;2023-08-12T01:37:30;1.85;;;1.75;;
66425;SDS011;53237;46.158;14.604;2023-08-12T01:39:57;4.72;;;2.00;;
66425;SDS011;53237;46.158;14.604;2023-08-12T01:42:24;2.03;;;1.90;;
66425;SDS011;53237;46.158;14.604;2023-08-12T01:44:50;2.00;;;1.80;;
66425;SDS011;53237;46.158;14.604;2023-08-12T01:47:17;1.95;;;1.80;;
66425;SDS011;53237;46.158;14.604;2023-08-12T01:49:43;2.20;;;2.00;;
66425;SDS011;53237;46.158;14.604;2023-08-12T01:52:09;1.60;;;1.50;;
66425;SDS011;53237;46.158;14.604;2023-08-12T01:54:35;1.90;;;1.80;;
66425;SDS011;53237;46.158;14.604;2023-08-12T01:57:01;1.80;;;1.70;;
66425;SDS011;53237;46.158;14.604;2023-08-12T01:59:27;1.73;;;1.63;;
66425;SDS011;53237;46.158;14.604;2023-08-12T02:01:53;1.80;;;1.70;;
66425;SDS011;53237;46.158;14.604;2023-08-12T02:04:19;3.22;;;1.98;;
66425;SDS011;53237;46.158;14.604;2023-08-12T02:06:45;2.30;;;2.10;;
66425;SDS011;53237;46.158;14.604;2023-08-12T02:09:11;2.22;;;2.03;;
66425;SDS011;53237;46.158;14.604;2023-08-12T02:11:37;1.83;;;1.73;;
66425;SDS011;53237;46.158;14.604;2023-08-12T02:14:03;2.47;;;2.22;;
66425;SDS011;53237;46.158;14.604;2023-08-12T02:16:30;2.15;;;1.90;;
66425;SDS011;53237;46.158;14.604;2023-08-12T02:18:56;2.00;;;1.90;;
66425;SDS011;53237;46.158;14.604;2023-08-12T02:21:22;2.05;;;1.92;;
66425;SDS011;53237;46.158;14.604;2023-08-12T02:23:47;1.90;;;1.70;;
66425;SDS011;53237;46.158;14.604;2023-08-12T02:26:14;2.28;;;1.73;;
66425;SDS011;53237;46.158;14.604;2023-08-12T02:28:40;2.00;;;1.90;;
66425;SDS011;53237;46.158;14.604;2023-08-12T02:31:06;2.75;;;1.92;;
66425;SDS011;53237;46.158;14.604;2023-08-12T02:33:32;2.15;;;1.95;;
66425;SDS011;53237;46.158;14.604;2023-08-12T02:35:58;1.90;;;1.80;;
66425;SDS011;53237;46.158;14.604;2023-08-12T02:38:24;2.60;;;1.92;;
66425;SDS011;53237;46.158;14.604;2023-08-12T02:40:50;1.80;;;1.70;;
66425;SDS011;53237;46.158;14.604;2023-08-12T02:43:16;2.25;;;2.03;;
66425;SDS011;53237;46.158;14.604;2023-08-12T02:45:43;2.45;;;2.15;;
66425;SDS011;53237;46.158;14.604;2023-08-12T02:48:09;1.90;;;1.73;;
66425;SDS011;53237;46.158;14.604;2023-08-12T02:50:36;1.75;;;1.65;;
66425;SDS011;53237;46.158;14.604;2023-08-12T02:53:02;2.25;;;1.85;;
66425;SDS011;53237;46.158;14.604;2023-08-12T02:55:28;2.00;;;1.85;;
66425;SDS011;53237;46.158;14.604;2023-08-12T02:57:56;2.15;;;1.95;;
66425;SDS011;53237;46.158;14.604;2023-08-12T03:00:22;1.70;;;1.60;;
66425;SDS011;53237;46.158;14.604;2023-08-12T03:02:48;1.70;;;1.60;;
66425;SDS011;53237;46.158;14.604;2023-08-12T03:05:14;2.08;;;1.83;;
66425;SDS011;53237;46.158;14.604;2023-08-12T03:07:41;2.35;;;1.92;;
66425;SDS011;53237;46.158;14.604;2023-08-12T03:10:07;1.95;;;1.85;;
66425;SDS011;53237;46.158;14.604;2023-08-12T03:12:34;1.95;;;1.70;;
66425;SDS011;53237;46.158;14.604;2023-08-12T03:15:01;1.67;;;1.40;;
66425;SDS011;53237;46.158;14.604;2023-08-12T03:17:27;1.60;;;1.50;;
66425;SDS011;53237;46.158;14.604;2023-08-12T03:19:53;1.70;;;1.60;;
66425;SDS011;53237;46.158;14.604;2023-08-12T03:22:21;2.10;;;1.77;;
66425;SDS011;53237;46.158;14.604;2023-08-12T03:24:48;2.20;;;2.00;;
66425;SDS011;53237;46.158;14.604;2023-08-12T03:27:14;2.25;;;1.75;;
66425;SDS011;53237;46.158;14.604;2023-08-12T03:29:40;2.55;;;1.80;;
66425;SDS011;53237;46.158;14.604;2023-08-12T03:32:06;2.00;;;1.85;;
66425;SDS011;53237;46.158;14.604;2023-08-12T03:34:32;2.50;;;1.88;;
66425;SDS011;53237;46.158;14.604;2023-08-12T03:36:58;1.60;;;1.50;;
66425;SDS011;53237;46.158;14.604;2023-08-12T03:39:24;1.70;;;1.60;;
66425;SDS011;53237;46.158;14.604;2023-08-12T03:41:50;2.00;;;1.90;;
66425;SDS011;53237;46.158;14.604;2023-08-12T03:44:17;1.80;;;1.70;;
66425;SDS011;53237;46.158;14.604;2023-08-12T03:46:44;1.77;;;1.67;;
66425;SDS011;53237;46.158;14.604;2023-08-12T03:49:10;2.28;;;1.80;;
66425;SDS011;53237;46.158;14.604;2023-08-12T03:51:36;2.22;;;2.05;;
66425;SDS011;53237;46.158;14.604;2023-08-12T03:54:02;1.52;;;1.35;;
66425;SDS011;53237;46.158;14.604;2023-08-12T03:56:28;1.88;;;1.77;;
66425;SDS011;53237;46.158;14.604;2023-08-12T03:58:55;1.88;;;1.73;;
66425;SDS011;53237;46.158;14.604;2023-08-12T04:01:21;2.10;;;1.70;;
66425;SDS011;53237;46.158;14.604;2023-08-12T04:03:47;2.63;;;1.70;;
66425;SDS011;53237;46.158;14.604;2023-08-12T04:06:13;2.05;;;1.88;;
66425;SDS011;53237;46.158;14.604;2023-08-12T04:08:39;2.45;;;1.77;;
66425;SDS011;53237;46.158;14.604;2023-08-12T04:11:05;2.13;;;1.90;;
66425;SDS011;53237;46.158;14.604;2023-08-12T04:13:31;2.08;;;1.88;;
66425;SDS011;53237;46.158;14.604;2023-08-12T04:15:57;2.10;;;1.90;;
66425;SDS011;53237;46.158;14.604;2023-08-12T04:18:23;2.13;;;1.92;;
66425;SDS011;53237;46.158;14.604;2023-08-12T04:20:49;2.50;;;1.95;;
66425;SDS011;53237;46.158;14.604;2023-08-12T04:23:16;1.95;;;1.80;;
66425;SDS011;53237;46.158;14.604;2023-08-12T04:25:42;1.90;;;1.67;;
66425;SDS011;53237;46.158;14.604;2023-08-12T04:28:09;2.17;;;1.80;;
66425;SDS011;53237;46.158;14.604;2023-08-12T04:30:35;2.65;;;2.10;;
66425;SDS011;53237;46.158;14.604;2023-08-12T04:33:01;1.90;;;1.80;;
66425;SDS011;53237;46.158;14.604;2023-08-12T04:35:27;1.80;;;1.70;;
66425;SDS011;53237;46.158;14.604;2023-08-12T04:37:53;2.10;;;1.90;;
66425;SDS011;53237;46.158;14.604;2023-08-12T04:40:19;2.17;;;1.98;;
66425;SDS011;53237;46.158;14.604;2023-08-12T04:42:45;2.28;;;2.08;;
66425;SDS011;53237;46.158;14.604;2023-08-12T04:45:11;2.22;;;1.83;;
66425;SDS011;53237;46.158;14.604;2023-08-12T04:47:37;2.03;;;1.90;;
66425;SDS011;53237;46.158;14.604;2023-08-12T04:50:04;2.03;;;1.83;;
66425;SDS011;53237;46.158;14.604;2023-08-12T04:52:31;1.70;;;1.60;;
66425;SDS011;53237;46.158;14.604;2023-08-12T04:54:57;1.80;;;1.70;;
66425;SDS011;53237;46.158;14.604;2023-08-12T04:57:23;1.60;;;1.50;;
66425;SDS011;53237;46.158;14.604;2023-08-12T04:59:49;2.13;;;1.95;;
66425;SDS011;53237;46.158;14.604;2023-08-12T05:02:15;1.95;;;1.85;;
66425;SDS011;53237;46.158;14.604;2023-08-12T05:04:47;2.17;;;1.70;;
66425;SDS011;53237;46.158;14.604;2023-08-12T05:07:13;1.90;;;1.73;;
66425;SDS011;53237;46.158;14.604;2023-08-12T05:09:39;1.80;;;1.70;;
66425;SDS011;53237;46.158;14.604;2023-08-12T05:12:05;2.80;;;1.70;;
66425;SDS011;53237;46.158;14.604;2023-08-12T05:14:31;1.90;;;1.80;;
66425;SDS011;53237;46.158;14.604;2023-08-12T05:16:57;1.60;;;1.50;;
66425;SDS011;53237;46.158;14.604;2023-08-12T05:19:23;2.00;;;1.88;;
66425;SDS011;53237;46.158;14.604;2023-08-12T05:21:49;2.47;;;2.28;;
66425;SDS011;53237;46.158;14.604;2023-08-12T05:24:15;1.60;;;1.50;;
66425;SDS011;53237;46.158;14.604;2023-08-12T05:26:42;2.67;;;1.80;;
66425;SDS011;53237;46.158;14.604;2023-08-12T05:29:08;2.10;;;1.90;;
66425;SDS011;53237;46.158;14.604;2023-08-12T05:31:34;1.80;;;1.70;;
66425;SDS011;53237;46.158;14.604;2023-08-12T05:34:00;3.00;;;1.80;;
66425;SDS011;53237;46.158;14.604;2023-08-12T05:36:26;1.67;;;1.58;;
66425;SDS011;53237;46.158;14.604;2023-08-12T05:38:52;1.83;;;1.73;;
66425;SDS011;53237;46.158;14.604;2023-08-12T05:41:18;2.38;;;1.70;;
66425;SDS011;53237;46.158;14.604;2023-08-12T05:43:44;1.52;;;1.42;;
66425;SDS011;53237;46.158;14.604;2023-08-12T05:46:10;1.75;;;1.58;;
66425;SDS011;53237;46.158;14.604;2023-08-12T05:48:36;2.08;;;1.85;;
66425;SDS011;53237;46.158;14.604;2023-08-12T05:51:02;3.08;;;1.70;;
66425;SDS011;53237;46.158;14.604;2023-08-12T05:53:28;1.73;;;1.63;;
66425;SDS011;53237;46.158;14.604;2023-08-12T05:55:54;3.00;;;2.20;;
66425;SDS011;53237;46.158;14.604;2023-08-12T05:58:20;2.95;;;2.30;;
66425;SDS011;53237;46.158;14.604;2023-08-12T06:00:46;2.85;;;1.98;;
66425;SDS011;53237;46.158;14.604;2023-08-12T06:03:12;4.72;;;4.03;;
66425;SDS011;53237;46.158;14.604;2023-08-12T06:05:40;5.07;;;4.57;;
66425;SDS011;53237;46.158;14.604;2023-08-12T06:08:06;3.42;;;3.13;;
66425;SDS011;53237;46.158;14.604;2023-08-12T06:10:33;5.97;;;4.20;;
66425;SDS011;53237;46.158;14.604;2023-08-12T06:12:59;4.95;;;3.58;;
66425;SDS011;53237;46.158;14.604;2023-08-12T06:15:25;4.25;;;3.85;;
66425;SDS011;53237;46.158;14.604;2023-08-12T06:17:52;6.50;;;4.82;;
66425;SDS011;53237;46.158;14.604;2023-08-12T06:20:18;5.38;;;4.55;;
66425;SDS011;53237;46.158;14.604;2023-08-12T06:22:44;6.53;;;4.43;;
66425;SDS011;53237;46.158;14.604;2023-08-12T06:25:10;4.65;;;4.25;;
66425;SDS011;53237;46.158;14.604;2023-08-12T06:27:36;5.97;;;4.07;;
66425;SDS011;53237;46.158;14.604;2023-08-12T06:30:02;4.80;;;4.32;;
66425;SDS011;53237;46.158;14.604;2023-08-12T06:32:28;3.53;;;3.22;;
66425;SDS011;53237;46.158;14.604;2023-08-12T06:34:54;4.30;;;3.90;;
66425;SDS011;53237;46.158;14.604;2023-08-12T06:37:20;3.70;;;3.40;;
66425;SDS011;53237;46.158;14.604;2023-08-12T06:39:46;3.22;;;3.03;;
66425;SDS011;53237;46.158;14.604;2023-08-12T06:42:12;3.95;;;3.40;;
66425;SDS011;53237;46.158;14.604;2023-08-12T06:44:38;3.60;;;3.30;;
66425;SDS011;53237;46.158;14.604;2023-08-12T06:47:04;3.00;;;2.80;;
66425;SDS011;53237;46.158;14.604;2023-08-12T06:49:30;2.75;;;2.50;;
66425;SDS011;53237;46.158;14.604;2023-08-12T06:51:56;3.92;;;3.63;;
66425;SDS011;53237;46.158;14.604;2023-08-12T06:54:22;2.97;;;2.78;;
66425;SDS011;53237;46.158;14.604;2023-08-12T06:56:49;3.60;;;3.25;;
66425;SDS011;53237;46.158;14.604;2023-08-12T06:59:15;4.75;;;4.30;;
66425;SDS011;53237;46.158;14.604;2023-08-12T07:01:42;3.20;;;3.00;;
66425;SDS011;53237;46.158;14.604;2023-08-12T07:04:08;4.03;;;3.63;;
66425;SDS011;53237;46.158;14.604;2023-08-12T07:06:34;4.80;;;4.30;;
66425;SDS011;53237;46.158;14.604;2023-08-12T07:09:00;4.28;;;3.88;;
66425;SDS011;53237;46.158;14.604;2023-08-12T07:11:26;4.10;;;3.72;;
66425;SDS011;53237;46.158;14.604;2023-08-12T07:13:52;3.03;;;2.80;;
66425;SDS011;53237;46.158;14.604;2023-08-12T07:16:18;3.72;;;3.35;;
66425;SDS011;53237;46.158;14.604;2023-08-12T07:18:44;3.72;;;3.40;;
66425;SDS011;53237;46.158;14.604;2023-08-12T07:21:10;4.35;;;3.80;;
66425;SDS011;53237;46.158;14.604;2023-08-12T07:23:36;4.03;;;3.72;;
66425;SDS011;53237;46.158;14.604;2023-08-12T07:26:02;4.60;;;3.85;;
66425;SDS011;53237;46.158;14.604;2023-08-12T07:28:28;4.00;;;3.63;;
66425;SDS011;53237;46.158;14.604;2023-08-12T07:30:54;3.55;;;3.25;;
66425;SDS011;53237;46.158;14.604;2023-08-12T07:33:20;3.40;;;3.10;;
66425;SDS011;53237;46.158;14.604;2023-08-12T07:35:46;3.17;;;2.90;;
66425;SDS011;53237;46.158;14.604;2023-08-12T07:38:12;3.05;;;2.85;;
66425;SDS011;53237;46.158;14.604;2023-08-12T07:40:38;3.55;;;3.25;;
66425;SDS011;53237;46.158;14.604;2023-08-12T07:43:04;3.20;;;2.90;;
66425;SDS011;53237;46.158;14.604;2023-08-12T07:45:31;2.58;;;2.38;;
66425;SDS011;53237;46.158;14.604;2023-08-12T07:47:57;2.88;;;2.55;;
66425;SDS011;53237;46.158;14.604;2023-08-12T07:50:23;3.00;;;2.80;;
66425;SDS011;53237;46.158;14.604;2023-08-12T07:52:49;3.40;;;3.03;;
66425;SDS011;53237;46.158;14.604;2023-08-12T07:55:16;3.00;;;2.80;;
66425;SDS011;53237;46.158;14.604;2023-08-12T07:57:44;2.95;;;2.75;;
66425;SDS011;53237;46.158;14.604;2023-08-12T08:00:10;3.28;;;2.58;;
66425;SDS011;53237;46.158;14.604;2023-08-12T08:02:37;3.33;;;3.03;;
66425;SDS011;53237;46.158;14.604;2023-08-12T08:05:03;3.53;;;2.85;;
66425;SDS011;53237;46.158;14.604;2023-08-12T08:07:29;5.00;;;3.20;;
66425;SDS011;53237;46.158;14.604;2023-08-12T08:09:56;3.75;;;2.80;;
66425;SDS011;53237;46.158;14.604;2023-08-12T08:12:22;3.92;;;2.78;;
66425;SDS011;53237;46.158;14.604;2023-08-12T08:14:48;3.88;;;2.92;;
66425;SDS011;53237;46.158;14.604;2023-08-12T08:17:14;3.20;;;2.90;;
66425;SDS011;53237;46.158;14.604;2023-08-12T08:19:40;3.13;;;2.83;;
66425;SDS011;53237;46.158;14.604;2023-08-12T08:22:06;3.17;;;2.83;;
66425;SDS011;53237;46.158;14.604;2023-08-12T08:24:32;3.28;;;2.92;;
66425;SDS011;53237;46.158;14.604;2023-08-12T08:26:58;3.13;;;2.83;;
66425;SDS011;53237;46.158;14.604;2023-08-12T08:29:24;3.15;;;2.85;;
66425;SDS011;53237;46.158;14.604;2023-08-12T08:31:50;3.88;;;3.28;;
66425;SDS011;53237;46.158;14.604;2023-08-12T08:34:16;2.83;;;2.63;;
66425;SDS011;53237;46.158;14.604;2023-08-12T08:36:42;2.78;;;2.58;;
66425;SDS011;53237;46.158;14.604;2023-08-12T08:39:08;3.20;;;2.90;;
66425;SDS011;53237;46.158;14.604;2023-08-12T08:41:37;3.60;;;2.90;;
66425;SDS011;53237;46.158;14.604;2023-08-12T08:44:03;3.88;;;3.25;;
66425;SDS011;53237;46.158;14.604;2023-08-12T08:46:32;3.65;;;3.03;;
66425;SDS011;53237;46.158;14.604;2023-08-12T08:48:58;3.13;;;2.80;;
66425;SDS011;53237;46.158;14.604;2023-08-12T08:51:30;2.55;;;2.35;;
66425;SDS011;53237;46.158;14.604;2023-08-12T08:54:01;4.72;;;2.75;;
66425;SDS011;53237;46.158;14.604;2023-08-12T08:56:29;3.10;;;2.80;;
66425;SDS011;53237;46.158;14.604;2023-08-12T08:58:55;3.13;;;2.83;;
66425;SDS011;53237;46.158;14.604;2023-08-12T09:01:21;3.63;;;3.20;;
66425;SDS011;53237;46.158;14.604;2023-08-12T09:03:47;3.20;;;2.70;;
66425;SDS011;53237;46.158;14.604;2023-08-12T09:06:14;2.95;;;2.60;;
66425;SDS011;53237;46.158;14.604;2023-08-12T09:08:40;3.83;;;2.30;;
66425;SDS011;53237;46.158;14.604;2023-08-12T09:11:06;2.47;;;2.28;;
66425;SDS011;53237;46.158;14.604;2023-08-12T09:13:33;2.72;;;2.50;;
66425;SDS011;53237;46.158;14.604;2023-08-12T09:15:59;2.45;;;2.25;;
66425;SDS011;53237;46.158;14.604;2023-08-12T09:18:25;2.40;;;2.20;;
66425;SDS011;53237;46.158;14.604;2023-08-12T09:20:52;2.60;;;2.40;;
66425;SDS011;53237;46.158;14.604;2023-08-12T09:23:18;2.75;;;2.45;;
66425;SDS011;53237;46.158;14.604;2023-08-12T09:25:44;2.70;;;2.17;;
66425;SDS011;53237;46.158;14.604;2023-08-12T09:28:11;2.05;;;1.90;;
66425;SDS011;53237;46.158;14.604;2023-08-12T09:30:37;1.77;;;1.65;;
66425;SDS011;53237;46.158;14.604;2023-08-12T09:33:04;2.35;;;2.15;;
66425;SDS011;53237;46.158;14.604;2023-08-12T09:35:41;2.20;;;2.00;;
66425;SDS011;53237;46.158;14.604;2023-08-12T09:38:12;2.00;;;1.90;;
66425;SDS011;53237;46.158;14.604;2023-08-12T09:40:39;1.70;;;1.60;;
66425;SDS011;53237;46.158;14.604;2023-08-12T09:43:05;2.78;;;1.73;;
66425;SDS011;53237;46.158;14.604;2023-08-12T09:45:32;2.00;;;1.90;;
66425;SDS011;53237;46.158;14.604;2023-08-12T09:47:58;1.65;;;1.55;;
66425;SDS011;53237;46.158;14.604;2023-08-12T09:50:24;1.90;;;1.80;;
66425;SDS011;53237;46.158;14.604;2023-08-12T09:52:51;1.98;;;1.75;;
66425;SDS011;53237;46.158;14.604;2023-08-12T09:55:18;1.88;;;1.77;;
66425;SDS011;53237;46.158;14.604;2023-08-12T09:57:44;2.17;;;1.92;;
66425;SDS011;53237;46.158;14.604;2023-08-12T10:00:12;1.73;;;1.63;;
66425;SDS011;53237;46.158;14.604;2023-08-12T10:02:43;1.50;;;1.40;;
66425;SDS011;53237;46.158;14.604;2023-08-12T10:05:11;1.63;;;1.52;;
66425;SDS011;53237;46.158;14.604;2023-08-12T10:07:37;1.40;;;1.30;;
66425;SDS011;53237;46.158;14.604;2023-08-12T10:10:04;1.70;;;1.60;;
66425;SDS011;53237;46.158;14.604;2023-08-12T10:12:30;1.15;;;1.15;;
66425;SDS011;53237;46.158;14.604;2023-08-12T10:14:56;1.45;;;1.35;;
66425;SDS011;53237;46.158;14.604;2023-08-12T10:17:22;1.30;;;1.20;;
66425;SDS011;53237;46.158;14.604;2023-08-12T10:19:54;1.40;;;1.30;;
66425;SDS011;53237;46.158;14.604;2023-08-12T10:22:20;1.40;;;1.30;;
66425;SDS011;53237;46.158;14.604;2023-08-12T10:24:47;1.33;;;1.23;;
66425;SDS011;53237;46.158;14.604;2023-08-12T10:27:13;1.38;;;1.27;;
66425;SDS011;53237;46.158;14.604;2023-08-12T10:29:42;1.65;;;1.55;;
66425;SDS011;53237;46.158;14.604;2023-08-12T10:32:08;1.30;;;1.20;;
66425;SDS011;53237;46.158;14.604;2023-08-12T10:34:35;1.55;;;1.45;;
66425;SDS011;53237;46.158;14.604;2023-08-12T10:37:02;1.38;;;1.27;;
66425;SDS011;53237;46.158;14.604;2023-08-12T10:39:28;1.50;;;1.40;;
66425;SDS011;53237;46.158;14.604;2023-08-12T10:41:55;1.30;;;1.20;;
66425;SDS011;53237;46.158;14.604;2023-08-12T10:44:21;1.40;;;1.30;;
66425;SDS011;53237;46.158;14.604;2023-08-12T10:46:52;1.67;;;1.58;;
66425;SDS011;53237;46.158;14.604;2023-08-12T10:49:19;2.00;;;1.60;;
66425;SDS011;53237;46.158;14.604;2023-08-12T10:54:22;1.67;;;1.58;;
66425;SDS011;53237;46.158;14.604;2023-08-12T11:02:18;1.65;;;1.55;;
66425;SDS011;53237;46.158;14.604;2023-08-12T11:04:44;2.33;;;1.60;;
66425;SDS011;53237;46.158;14.604;2023-08-12T11:07:20;2.47;;;1.90;;
66425;SDS011;53237;46.158;14.604;2023-08-12T11:09:51;1.65;;;1.55;;
66425;SDS011;53237;46.158;14.604;2023-08-12T11:12:18;1.40;;;1.30;;
66425;SDS011;53237;46.158;14.604;2023-08-12T11:14:48;1.52;;;1.40;;
66425;SDS011;53237;46.158;14.604;2023-08-12T11:17:14;2.08;;;1.67;;
66425;SDS011;53237;46.158;14.604;2023-08-12T11:19:41;1.70;;;1.40;;
66425;SDS011;53237;46.158;14.604;2023-08-12T11:22:08;1.52;;;1.42;;
66425;SDS011;53237;46.158;14.604;2023-08-12T11:24:34;1.95;;;1.60;;
66425;SDS011;53237;46.158;14.604;2023-08-12T11:27:02;2.75;;;2.05;;
66425;SDS011;53237;46.158;14.604;2023-08-12T11:29:28;1.60;;;1.50;;
66425;SDS011;53237;46.158;14.604;2023-08-12T11:31:54;1.63;;;1.52;;
66425;SDS011;53237;46.158;14.604;2023-08-12T11:34:20;2.55;;;1.40;;
66425;SDS011;53237;46.158;14.604;2023-08-12T11:36:46;1.60;;;1.50;;
66425;SDS011;53237;46.158;14.604;2023-08-12T11:39:12;2.22;;;1.67;;
66425;SDS011;53237;46.158;14.604;2023-08-12T11:41:39;2.63;;;1.50;;
66425;SDS011;53237;46.158;14.604;2023-08-12T11:44:05;1.55;;;1.45;;
66425;SDS011;53237;46.158;14.604;2023-08-12T11:46:32;2.00;;;1.80;;
66425;SDS011;53237;46.158;14.604;2023-08-12T11:48:58;1.70;;;1.60;;
66425;SDS011;53237;46.158;14.604;2023-08-12T11:51:24;1.65;;;1.55;;
66425;SDS011;53237;46.158;14.604;2023-08-12T11:53:50;1.40;;;1.30;;
66425;SDS011;53237;46.158;14.604;2023-08-12T11:56:16;1.42;;;1.33;;
66425;SDS011;53237;46.158;14.604;2023-08-12T11:58:48;1.55;;;1.42;;
66425;SDS011;53237;46.158;14.604;2023-08-12T12:01:15;1.60;;;1.50;;
66425;SDS011;53237;46.158;14.604;2023-08-12T12:03:41;1.55;;;1.40;;
66425;SDS011;53237;46.158;14.604;2023-08-12T12:06:07;1.60;;;1.50;;
66425;SDS011;53237;46.158;14.604;2023-08-12T12:08:33;1.60;;;1.50;;
66425;SDS011;53237;46.158;14.604;2023-08-12T12:11:03;1.83;;;1.42;;
66425;SDS011;53237;46.158;14.604;2023-08-12T12:13:30;2.55;;;1.63;;
66425;SDS011;53237;46.158;14.604;2023-08-12T12:15:56;1.60;;;1.50;;
66425;SDS011;53237;46.158;14.604;2023-08-12T12:18:24;1.73;;;1.63;;
66425;SDS011;53237;46.158;14.604;2023-08-12T12:20:55;1.60;;;1.50;;
66425;SDS011;53237;46.158;14.604;2023-08-12T12:23:21;1.40;;;1.30;;
66425;SDS011;53237;46.158;14.604;2023-08-12T12:25:47;1.60;;;1.50;;
66425;SDS011;53237;46.158;14.604;2023-08-12T12:28:13;1.65;;;1.55;;
66425;SDS011;53237;46.158;14.604;2023-08-12T12:30:39;1.63;;;1.52;;
66425;SDS011;53237;46.158;14.604;2023-08-12T12:33:05;1.63;;;1.52;;
66425;SDS011;53237;46.158;14.604;2023-08-12T12:35:31;2.38;;;1.85;;
66425;SDS011;53237;46.158;14.604;2023-08-12T12:37:57;1.52;;;1.42;;
66425;SDS011;53237;46.158;14.604;2023-08-12T12:40:23;2.38;;;1.60;;
66425;SDS011;53237;46.158;14.604;2023-08-12T12:42:49;1.73;;;1.63;;
66425;SDS011;53237;46.158;14.604;2023-08-12T12:45:15;2.33;;;1.95;;
66425;SDS011;53237;46.158;14.604;2023-08-12T12:47:41;1.80;;;1.70;;
66425;SDS011;53237;46.158;14.604;2023-08-12T12:50:07;1.80;;;1.70;;
66425;SDS011;53237;46.158;14.604;2023-08-12T12:52:33;1.60;;;1.35;;
66425;SDS011;53237;46.158;14.604;2023-08-12T12:54:59;1.13;;;1.13;;
66425;SDS011;53237;46.158;14.604;2023-08-12T12:57:25;1.50;;;1.40;;
66425;SDS011;53237;46.158;14.604;2023-08-12T12:59:51;1.58;;;1.48;;
66425;SDS011;53237;46.158;14.604;2023-08-12T13:02:17;2.58;;;1.65;;
66425;SDS011;53237;46.158;14.604;2023-08-12T13:04:43;1.65;;;1.50;;
66425;SDS011;53237;46.158;14.604;2023-08-12T13:07:09;1.58;;;1.48;;
66425;SDS011;53237;46.158;14.604;2023-08-12T13:09:35;1.20;;;1.20;;
66425;SDS011;53237;46.158;14.604;2023-08-12T13:12:01;1.65;;;1.50;;
66425;SDS011;53237;46.158;14.604;2023-08-12T13:14:27;1.30;;;1.20;;
66425;SDS011;53237;46.158;14.604;2023-08-12T13:16:55;1.48;;;1.38;;
66425;SDS011;53237;46.158;14.604;2023-08-12T13:19:21;1.42;;;1.33;;
66425;SDS011;53237;46.158;14.604;2023-08-12T13:21:47;1.50;;;1.40;;
66425;SDS011;53237;46.158;14.604;2023-08-12T13:24:13;1.30;;;1.20;;
66425;SDS011;53237;46.158;14.604;2023-08-12T13:26:40;2.30;;;1.50;;
66425;SDS011;53237;46.158;14.604;2023-08-12T13:29:06;1.98;;;1.30;;
66425;SDS011;53237;46.158;14.604;2023-08-12T13:31:32;1.10;;;1.10;;
66425;SDS011;53237;46.158;14.604;2023-08-12T13:33:58;1.40;;;1.30;;
66425;SDS011;53237;46.158;14.604;2023-08-12T13:36:24;1.70;;;1.60;;
66425;SDS011;53237;46.158;14.604;2023-08-12T13:38:50;2.08;;;1.38;;
66425;SDS011;53237;46.158;14.604;2023-08-12T13:41:16;1.30;;;1.20;;
66425;SDS011;53237;46.158;14.604;2023-08-12T13:43:42;1.45;;;1.35;;
66425;SDS011;53237;46.158;14.604;2023-08-12T13:46:08;1.00;;;1.00;;
66425;SDS011;53237;46.158;14.604;2023-08-12T13:48:34;1.55;;;1.27;;
66425;SDS011;53237;46.158;14.604;2023-08-12T13:51:00;1.42;;;1.10;;
66425;SDS011;53237;46.158;14.604;2023-08-12T13:53:27;1.58;;;1.48;;
66425;SDS011;53237;46.158;14.604;2023-08-12T13:55:54;1.92;;;1.80;;
66425;SDS011;53237;46.158;14.604;2023-08-12T13:58:20;1.90;;;1.58;;
66425;SDS011;53237;46.158;14.604;2023-08-12T14:00:46;2.20;;;1.80;;
66425;SDS011;53237;46.158;14.604;2023-08-12T14:03:12;5.25;;;2.50;;
66425;SDS011;53237;46.158;14.604;2023-08-12T14:05:38;2.85;;;1.70;;
66425;SDS011;53237;46.158;14.604;2023-08-12T14:08:04;1.88;;;1.40;;
66425;SDS011;53237;46.158;14.604;2023-08-12T14:10:31;1.20;;;1.20;;
66425;SDS011;53237;46.158;14.604;2023-08-12T14:12:57;1.60;;;1.50;;
66425;SDS011;53237;46.158;14.604;2023-08-12T14:15:23;1.48;;;1.38;;
66425;SDS011;53237;46.158;14.604;2023-08-12T14:17:49;1.98;;;1.77;;
66425;SDS011;53237;46.158;14.604;2023-08-12T14:20:15;1.85;;;1.67;;
66425;SDS011;53237;46.158;14.604;2023-08-12T14:22:41;2.67;;;1.63;;
66425;SDS011;53237;46.158;14.604;2023-08-12T14:25:08;1.60;;;1.50;;
66425;SDS011;53237;46.158;14.604;2023-08-12T14:27:36;1.40;;;1.30;;
66425;SDS011;53237;46.158;14.604;2023-08-12T14:30:02;2.38;;;1.77;;
66425;SDS011;53237;46.158;14.604;2023-08-12T14:32:28;3.20;;;1.85;;
66425;SDS011;53237;46.158;14.604;2023-08-12T14:34:54;1.70;;;1.60;;
66425;SDS011;53237;46.158;14.604;2023-08-12T14:37:20;2.28;;;1.60;;
66425;SDS011;53237;46.158;14.604;2023-08-12T14:39:46;1.50;;;1.30;;
66425;SDS011;53237;46.158;14.604;2023-08-12T14:42:12;1.88;;;1.40;;